Terminal Aerodrome Forecast
Issued by NWS Anchorage, AK

Home | Current Version | Previous Version | Text Only | Print | Product List | Glossary On
Versions: 1 2 3 4 5 6 7 8 9 10 11 12 13 14 15 16 17 18 19
000
FTAK31 PANC 211133
TAFANC
TAF
PANC 211133Z 2112/2218 VRB03KT P6SM SKC
     FM212200 35004KT P6SM SCT045 BKN100
     FM220200 01005KT 6SM -SN BR SCT030 OVC045
     FM220800 VRB03KT P6SM VCFG SCT010=

USA.gov is the U.S. government's official web portal to all federal, state and local government web resources and services.